LFBU/ANG METAR and TAF weather

Enter ICAO airport designator
Station Type Date Time Source
LFBU METAR 2021/04/17 03:30 UTC NOAA

LFBU 170330Z AUTO 36005KT CAVOK 04/M01 Q1023


Station Type Date Time Source
LFBU Decoded METAR 2021/04/17 03:30 UTC NOAA

Station name not available
Apr 16, 2021 - 11:30 PM EDT / 2021.04.17 0330 UTC
Wind: from the N (360 degrees) at 6 MPH (5 KT):0
Visibility: greater than 7 mile(s):0
Temperature: 39 F (4 C)
Dew Point: 30 F (-1 C)
Relative Humidity: 69%
Pressure (altimeter): 30.21 in. Hg (1023 hPa)
ob: LFBU 170330Z AUTO 36005KT CAVOK 04/M01 Q1023
cycle: 3

Station Type Date Time Source
LFBU TAF 2021/04/16 21:00 UTC NOAA

TAF
AMD LFBU 162152Z 1621/1718 CNL

Example: see airport list